Time;durP1;ratioP1;P1;durP2;ratioP2;P2;SDS_P1;SDS_P2;PMS_P1;PMS_P2;Temp;Humidity;BMP_temperature;BMP_pressure;BME280_temperature;BME280_humidity;BME280_pressure;Samples;Min_cycle;Max_cycle;Signal;HPM_P1;HPM_P2
2022/04/01 00:00:26;;;;;;;1.10;0.70;;;5.00;1.40;;;5.62;100.00;93122.38;647514;216;31915;-78
2022/04/01 00:03:10;;;;;;;0.60;0.50;;;5.00;1.40;;;5.72;100.00;93119.83;648674;212;31519;-77
2022/04/01 00:05:55;;;;;;;1.42;0.65;;;5.10;1.40;;;5.77;100.00;93118.03;620610;222;31912;-76
2022/04/01 00:08:49;;;;;;;1.70;0.50;;;5.10;1.40;;;5.81;100.00;93116.53;648832;211;31693;-77
2022/04/01 00:11:36;;;;;;;0.90;0.40;;;5.10;1.40;;;5.72;100.00;93120.89;649700;212;31516;-77
2022/04/01 00:14:24;;;;;;;0.80;0.50;;;5.10;1.40;;;5.66;100.00;93119.44;646825;216;42709;-75
2022/04/01 00:17:06;;;;;;;1.00;0.60;;;5.00;1.40;;;5.68;100.00;93117.33;646301;216;31498;-76
2022/04/01 00:22:25;;;;;;;1.00;0.60;;;5.00;1.40;;;5.56;100.00;93122.16;646184;212;42298;-75
2022/04/01 00:25:15;;;;;;;0.80;0.50;;;4.90;1.40;;;5.50;100.00;93123.09;622017;225;31828;-78
2022/04/01 00:27:58;;;;;;;1.35;1.20;;;4.90;1.40;;;5.47;100.00;93124.09;619523;226;31825;-75
2022/04/01 00:30:40;;;;;;;0.60;0.40;;;4.80;1.40;;;5.50;100.00;93122.00;619363;222;31828;-75
2022/04/01 00:36:00;;;;;;;1.00;0.80;;;4.90;1.40;;;5.43;100.00;93123.16;645594;216;31486;-76
2022/04/01 00:38:57;;;;;;;0.90;0.60;;;4.80;1.40;;;5.45;100.00;93119.88;650890;212;31475;-77
2022/04/01 00:41:53;;;;;;;;;;;4.80;1.40;;;5.45;100.00;93114.56;625417;227;24953;-77
2022/04/01 00:44:40;;;;;;;;;;;4.80;1.40;;;5.33;100.00;93115.47;652943;216;24826;-75
2022/04/01 00:47:34;;;;;;;;;;;4.80;1.40;;;5.39;100.00;93111.23;652936;212;24814;-76
2022/04/01 00:50:24;;;;;;;;;;;4.80;1.40;;;5.40;100.00;93111.36;652935;212;25181;-75
2022/04/01 01:03:37;;;;;;;;;;;4.70;1.40;;;5.40;100.00;93108.78;622415;226;25508;-75
2022/04/01 01:06:29;;;;;;;;;;;4.80;1.40;;;5.45;100.00;93106.10;652947;212;24803;-75
2022/04/01 01:09:20;;;;;;;;;;;4.80;1.40;;;5.48;100.00;93103.84;651602;215;24698;-76
2022/04/01 01:12:07;;;;;;;;;;;4.80;1.40;;;5.47;100.00;93105.20;635974;220;24897;-76
2022/04/01 01:14:49;;;;;;;;;;;4.90;1.40;;;5.46;100.00;93101.92;642751;217;25064;-76
2022/04/01 01:17:36;;;;;;;;;;;4.80;1.40;;;5.48;100.00;93095.70;652422;215;24902;-76
2022/04/01 01:20:20;;;;;;;;;;;4.90;1.40;;;5.41;100.00;93095.97;653361;216;24841;-75
2022/04/01 01:23:12;;;;;;;;;;;4.80;1.40;;;5.37;100.00;93096.46;624706;224;24792;-75
2022/04/01 01:25:51;;;;;;;;;;;4.80;1.40;;;5.41;100.00;93094.20;655428;212;24890;-75
2022/04/01 01:28:33;;;;;;;;;;;4.80;1.40;;;5.40;100.00;93096.20;653116;212;24915;-74
2022/04/01 01:31:21;;;;;;;;;;;4.80;1.40;;;5.44;100.00;93087.02;623142;224;25188;-74
2022/04/01 01:35:51;;;;;;;2.12;0.65;;;4.90;1.40;;;5.38;100.00;93084.94;648032;216;31726;-74
2022/04/01 01:38:33;;;;;;;0.52;0.52;;;4.80;1.40;;;5.41;100.00;93086.39;647398;212;42167;-75
2022/04/01 01:41:14;;;;;;;1.23;0.85;;;4.80;1.40;;;5.37;100.00;93080.83;648933;216;31524;-75
2022/04/01 01:43:56;;;;;;;1.10;1.00;;;4.80;1.40;;;5.32;100.00;93085.23;648168;216;31526;-75
2022/04/01 01:46:41;;;;;;;1.40;1.10;;;4.80;1.40;;;5.14;100.00;93087.15;646773;216;31615;-75
2022/04/01 01:49:22;;;;;;;;;;;4.60;1.40;;;4.99;100.00;93088.04;653123;216;24803;-74
2022/04/01 01:54:52;;;;;;;;;;;4.40;1.40;;;4.67;100.00;93092.91;653014;216;24842;-75
2022/04/01 01:57:32;;;;;;;;;;;4.30;1.40;;;4.54;100.00;93089.19;654412;212;25446;-76
2022/04/01 02:00:16;;;;;;;;;;;4.20;1.40;;;4.39;100.00;93088.91;654402;216;24713;-75
2022/04/01 02:02:58;;;;;;;;;;;4.10;1.40;;;4.26;100.00;93091.33;649671;216;24807;-74
2022/04/01 02:05:39;;;;;;;;;;;4.00;1.40;;;4.25;100.00;93088.42;653620;212;24836;-74
2022/04/01 02:08:21;;;;;;;;;;;3.90;1.40;;;4.13;100.00;93094.66;653410;212;24830;-76
2022/04/01 02:11:02;;;;;;;;;;;3.80;1.40;;;4.00;100.00;93090.37;655049;212;25015;-74
2022/04/01 02:13:45;;;;;;;;;;;3.70;1.40;;;3.95;100.00;93088.52;653563;212;24831;-75
2022/04/01 02:16:25;;;;;;;;;;;3.70;1.40;;;3.90;100.00;93090.28;655664;212;24885;-75
2022/04/01 02:19:09;;;;;;;;;;;3.60;1.40;;;3.82;100.00;93089.09;653685;212;24867;-75
2022/04/01 02:21:50;;;;;;;;;;;3.60;1.40;;;3.72;100.00;93091.41;653670;216;24900;-74
2022/04/01 02:24:31;;;;;;;;;;;3.40;1.40;;;3.71;100.00;93089.06;654289;213;24811;-74
2022/04/01 02:27:17;;;;;;;;;;;3.50;1.40;;;3.65;100.00;93092.21;649806;215;25434;-75
2022/04/01 02:29:57;;;;;;;;;;;3.40;1.40;;;3.62;100.00;93089.38;653404;212;24821;-73
2022/04/01 02:32:39;;;;;;;;;;;3.40;1.40;;;3.61;100.00;93095.03;654416;216;24818;-72
2022/04/01 02:35:50;;;;;;;;;;;3.30;1.40;;;3.47;100.00;93092.11;654698;212;25181;-75
2022/04/01 02:38:31;;;;;;;;;;;3.20;1.40;;;3.48;100.00;93093.83;654880;216;24898;-73
2022/04/01 02:41:13;;;;;;;;;;;3.20;1.40;;;3.48;100.00;93093.45;648869;215;25095;-72
2022/04/01 02:44:08;;;;;;;;;;;3.20;1.40;;;3.44;100.00;93097.67;653458;216;25416;-72
2022/04/01 02:46:38;;;;;;;;;;;3.20;1.40;;;3.42;100.00;93099.28;654002;216;24810;-74
2022/04/01 02:49:19;;;;;;;;;;;3.10;1.40;;;3.45;100.00;93101.44;654104;216;24824;-72
2022/04/01 02:52:01;;;;;;;;;;;3.20;1.40;;;3.37;100.00;93099.78;654440;212;24798;-72
2022/04/01 02:54:42;;;;;;;;;;;3.10;1.40;;;3.25;100.00;93091.72;653635;212;24824;-74
2022/04/01 02:57:23;;;;;;;;;;;3.00;1.40;;;3.28;100.00;93095.75;655109;212;25326;-75
2022/04/01 03:00:11;;;;;;;;;;;3.00;1.40;;;3.27;100.00;93101.17;653937;216;25295;-74
2022/04/01 03:02:53;;;;;;;;;;;3.00;1.40;;;3.27;100.00;93103.28;654260;216;24824;-73
2022/04/01 03:05:40;;;;;;;;;;;3.00;1.40;;;3.26;100.00;93107.05;653275;216;24858;-74
2022/04/01 03:08:22;;;;;;;;;;;2.90;1.40;;;3.16;100.00;93095.48;642243;216;24854;-74
2022/04/01 03:11:05;;;;;;;;;;;2.90;1.40;;;3.15;100.00;93100.73;653608;212;24818;-76
2022/04/01 03:13:48;;;;;;;;;;;2.90;1.40;;;3.09;100.00;93100.40;652537;216;24816;-74
2022/04/01 03:16:30;;;;;;;;;;;2.80;1.40;;;3.06;100.00;93106.33;653852;216;24933;-76
2022/04/01 03:19:13;;;;;;;;;;;2.80;1.40;;;3.01;100.00;93097.55;653189;216;24845;-75
2022/04/01 03:21:55;;;;;;;;;;;2.80;1.40;;;2.97;100.00;93109.10;654081;216;24823;-75
2022/04/01 03:24:36;;;;;;;;;;;2.70;1.40;;;2.95;100.00;93106.81;653131;216;24822;-76
2022/04/01 03:27:29;;;;;;;;;;;2.60;1.40;;;2.89;100.00;93110.89;628766;222;24837;-76
2022/04/01 03:30:13;;;;;;;;;;;2.60;1.40;;;2.81;100.00;93112.63;653198;212;24829;-75
2022/04/01 03:32:59;;;;;;;;;;;2.60;1.40;;;2.84;100.00;93109.16;652410;215;24857;-76
2022/04/01 03:36:09;;;;;;;0.52;0.52;;;2.60;1.40;;;2.75;100.00;93108.08;622734;221;31901;-76
2022/04/01 03:38:58;;;;;;;0.80;0.50;;;2.50;1.40;;;2.72;100.00;93111.17;621550;222;43063;-77
2022/04/01 03:41:46;;;;;;;;;;;2.50;1.40;;;2.64;100.00;93116.26;653334;216;24819;-74
2022/04/01 03:44:29;;;;;;;;;;;2.40;1.40;;;2.57;100.00;93109.38;649109;217;24798;-75
2022/04/01 03:47:10;;;;;;;;;;;2.30;1.40;;;2.59;100.00;93118.59;654018;216;24805;-74
2022/04/01 03:49:57;;;;;;;;;;;2.30;1.40;;;2.53;100.00;93114.25;648922;216;24886;-78
2022/04/01 03:52:51;;;;;;;;;;;2.30;1.40;;;2.48;100.00;93109.34;655087;216;24842;-77
2022/04/01 03:55:31;;;;;;;;;;;2.20;1.40;;;2.41;100.00;93114.09;646288;221;24948;-76
2022/04/01 03:58:28;;;;;;;;;;;2.20;1.40;;;2.36;100.00;93122.11;635687;220;24985;-77
2022/04/01 04:01:24;;;;;;;;;;;2.10;1.40;;;2.33;100.00;93122.47;650665;218;24940;-76
2022/04/01 04:04:22;;;;;;;;;;;2.10;1.40;;;2.27;100.00;93124.61;655867;212;24880;-76
2022/04/01 04:07:14;;;;;;;;;;;2.00;1.40;;;2.22;100.00;93122.10;652382;212;24952;-76
2022/04/01 04:09:58;;;;;;;;;;;2.00;1.40;;;2.17;100.00;93122.14;656572;216;25446;-77
2022/04/01 04:12:41;;;;;;;;;;;2.00;1.40;;;2.17;100.00;93125.87;654473;212;24818;-76
2022/04/01 04:15:26;;;;;;;;;;;1.90;1.40;;;2.07;100.00;93132.99;623124;227;24980;-76
2022/04/01 04:18:09;;;;;;;;;;;1.80;1.40;;;2.04;100.00;93139.73;654274;216;25360;-77
2022/04/01 04:21:11;;;;;;;;;;;1.70;1.40;;;1.85;100.00;93139.57;657881;212;24889;-77
2022/04/01 04:23:59;;;;;;;;;;;1.60;1.40;;;1.72;100.00;93147.10;652467;216;24877;-74
2022/04/01 04:26:46;;;;;;;;;;;1.50;1.40;;;1.60;100.00;93146.63;624619;226;24883;-75
2022/04/01 04:29:39;;;;;;;;;;;1.40;1.40;;;1.58;100.00;93147.72;654960;216;24756;-76
2022/04/01 04:32:29;;;;;;;;;;;1.40;1.40;;;1.48;100.00;93151.02;653086;216;24822;-74
2022/04/01 04:35:52;;;;;;;1.80;0.50;;;1.30;1.40;;;1.40;100.00;93157.73;646892;212;31562;-73
2022/04/01 04:38:35;;;;;;;0.50;0.30;;;1.20;1.40;;;1.33;100.00;93154.33;646242;212;31486;-74
2022/04/01 04:41:17;;;;;;;0.50;0.40;;;1.10;1.40;;;1.30;100.00;93159.94;646656;212;31618;-74
2022/04/01 04:44:09;;;;;;;0.50;0.40;;;1.10;1.40;;;1.21;100.00;93160.61;647711;216;31507;-77
2022/04/01 04:46:57;;;;;;;;;;;1.10;1.40;;;1.16;100.00;93160.94;647100;217;24859;-72
2022/04/01 04:49:38;;;;;;;;;;;1.00;1.40;;;1.13;100.00;93160.00;653510;212;25100;-74
2022/04/01 04:52:31;;;;;;;;;;;1.00;1.40;;;1.06;100.00;93169.20;627660;222;24904;-76
2022/04/01 04:55:19;;;;;;;;;;;0.90;1.40;;;1.02;100.00;93170.37;651701;214;24832;-77
2022/04/01 04:58:06;;;;;;;;;;;0.90;1.40;;;1.00;100.00;93173.72;652937;212;24839;-74
2022/04/01 05:00:48;;;;;;;;;;;0.90;1.40;;;0.99;100.00;93171.87;647324;217;24839;-76
2022/04/01 05:03:46;;;;;;;;;;;0.90;1.40;;;0.95;100.00;93177.61;634971;220;25607;-76
2022/04/01 05:07:14;;;;;;;;;;;0.80;1.40;;;0.90;100.00;93173.43;652705;212;24868;-76
2022/04/01 05:10:12;;;;;;;;;;;0.80;1.40;;;0.90;100.00;93176.42;651328;216;24870;-75
2022/04/01 05:13:08;;;;;;;;;;;0.80;1.40;;;0.89;100.00;93183.89;631164;222;24856;-75
2022/04/01 05:15:49;;;;;;;;;;;0.80;1.40;;;0.95;100.00;93190.09;651959;216;24842;-76
2022/04/01 05:18:38;;;;;;;;;;;0.80;1.40;;;0.96;100.00;93189.64;650643;216;24792;-75
2022/04/01 05:21:23;;;;;;;;;;;0.80;1.40;;;0.96;100.00;93188.41;622933;223;24867;-76
2022/04/01 05:24:08;;;;;;;;;;;0.80;1.40;;;0.96;100.00;93195.84;625478;222;26934;-75
2022/04/01 05:26:55;;;;;;;;;;;0.80;1.40;;;0.94;100.00;93195.71;654350;212;24904;-76
2022/04/01 05:29:37;;;;;;;;;;;0.80;1.40;;;0.96;100.00;93195.56;648570;217;24826;-75
2022/04/01 05:32:25;;;;;;;;;;;0.90;1.40;;;0.95;100.00;93198.89;648696;216;25559;-74
2022/04/01 05:36:04;;;;;;;;;;;0.80;1.40;;;0.98;100.00;93196.27;651776;216;27306;-76
2022/04/01 05:38:51;;;;;;;;;;;0.90;1.40;;;1.01;100.00;93198.39;650461;215;25461;-77
2022/04/01 05:41:38;;;;;;;;;;;0.90;1.40;;;1.00;100.00;93203.44;652614;216;24818;-76
2022/04/01 05:44:25;;;;;;;;;;;0.80;1.40;;;1.06;100.00;93203.88;654762;212;24889;-76
2022/04/01 05:47:17;;;;;;;;;;;0.90;1.40;;;1.11;100.00;93206.66;654497;212;24812;-76
2022/04/01 05:50:00;;;;;;;;;;;0.90;1.40;;;1.06;100.00;93210.39;653756;216;25388;-76
2022/04/01 05:52:50;;;;;;;;;;;0.90;1.40;;;1.05;100.00;93213.61;656025;212;24782;-75
2022/04/01 05:55:44;;;;;;;;;;;0.90;1.40;;;1.02;100.00;93222.84;625015;222;24996;-76
2022/04/01 05:58:48;;;;;;;;;;;0.90;1.40;;;1.07;100.00;93218.27;625305;224;24954;-76
2022/04/01 06:01:40;;;;;;;;;;;0.90;1.40;;;1.10;100.00;93215.27;652689;216;24945;-74
2022/04/01 06:04:38;;;;;;;;;;;0.90;1.40;;;1.17;100.00;93224.00;653278;216;25285;-76
2022/04/01 06:07:26;;;;;;;;;;;1.00;1.40;;;1.15;100.00;93224.03;650573;216;24861;-75
2022/04/01 06:20:40;;;;;;;;;;;0.90;1.40;;;1.15;100.00;93234.82;655941;216;24824;-76
2022/04/01 06:23:40;;;;;;;;;;;0.90;1.40;;;1.14;100.00;93234.58;653432;212;24823;-75
2022/04/01 06:26:28;;;;;;;;;;;1.00;1.40;;;1.16;100.00;93241.30;652903;216;24733;-73
2022/04/01 06:29:20;;;;;;;;;;;0.90;1.40;;;1.20;100.00;93239.83;652960;212;25071;-73
2022/04/01 06:32:05;;;;;;;;;;;1.00;1.40;;;1.26;100.00;93239.91;653069;212;24860;-72
2022/04/01 06:36:06;;;;;;;9.50;0.82;;;1.00;1.40;;;1.24;100.00;93238.25;647556;216;31534;-75
2022/04/01 06:38:57;;;;;;;0.50;0.40;;;1.00;1.40;;;1.20;100.00;93240.42;619406;222;33489;-75
2022/04/01 06:41:47;;;;;;;0.50;0.40;;;1.00;1.40;;;1.16;100.00;93241.20;646399;216;31621;-73
2022/04/01 06:44:29;;;;;;;0.40;0.40;;;0.90;1.40;;;1.16;100.00;93242.15;646420;216;31490;-73
2022/04/01 06:47:17;;;;;;;0.40;0.30;;;1.00;1.40;;;1.18;100.00;93247.98;646783;216;42319;-75
2022/04/01 06:50:05;;;;;;;;;;;0.90;1.40;;;1.17;100.00;93245.70;653661;216;24818;-73
2022/04/01 06:52:46;;;;;;;;;;;0.90;1.40;;;1.17;100.00;93248.28;649407;216;24828;-73
2022/04/01 06:55:34;;;;;;;;;;;1.00;1.40;;;1.20;100.00;93249.98;652664;216;24813;-76
2022/04/01 06:58:21;;;;;;;;;;;0.90;1.40;;;1.13;100.00;93252.00;652714;216;25489;-74
2022/04/01 07:01:03;;;;;;;;;;;0.90;1.40;;;1.11;100.00;93248.48;653415;216;24816;-76
2022/04/01 07:03:48;;;;;;;;;;;0.90;1.40;;;1.12;100.00;93248.81;653182;216;24837;-73
2022/04/01 07:06:30;;;;;;;;;;;0.90;1.40;;;1.20;100.00;93245.86;652499;216;24839;-73
2022/04/01 07:09:11;;;;;;;;;;;0.90;1.40;;;1.27;100.00;93249.28;640862;216;26201;-73
2022/04/01 07:11:53;;;;;;;;;;;1.00;1.40;;;1.24;100.00;93255.75;653706;212;24851;-73
2022/04/01 07:14:34;;;;;;;;;;;1.00;1.40;;;1.23;100.00;93252.31;653149;216;24843;-73
2022/04/01 07:17:15;;;;;;;;;;;1.00;1.40;;;1.18;100.00;93255.18;653209;216;24827;-73
2022/04/01 07:19:57;;;;;;;;;;;1.00;1.40;;;1.21;100.00;93256.83;648461;217;24845;-73
2022/04/01 07:22:42;;;;;;;;;;;1.00;1.40;;;1.32;100.00;93257.69;652992;216;24733;-76
2022/04/01 07:25:30;;;;;;;;;;;1.00;1.40;;;1.30;100.00;93253.45;652207;216;24917;-72
2022/04/01 07:28:13;;;;;;;;;;;1.00;1.40;;;1.29;100.00;93256.55;653816;216;24811;-76
2022/04/01 07:30:55;;;;;;;;;;;1.10;1.40;;;1.30;100.00;93256.96;653121;212;25007;-73
2022/04/01 07:35:51;;;;;;;0.40;0.30;;;1.10;1.40;;;1.22;100.00;93254.30;646405;212;32199;-73
2022/04/01 07:38:35;;;;;;;0.40;0.37;;;1.00;1.40;;;1.29;100.00;93258.53;647358;216;31518;-73
2022/04/01 07:41:18;;;;;;;0.40;0.30;;;1.10;1.40;;;1.24;100.00;93257.58;646551;212;32112;-73
2022/04/01 07:43:59;;;;;;;2.10;0.70;;;1.00;1.40;;;1.27;100.00;93257.52;646915;212;32048;-73
2022/04/01 07:46:41;;;;;;;0.40;0.25;;;1.00;1.40;;;1.28;100.00;93258.02;646076;212;32098;-74
2022/04/01 07:49:23;;;;;;;0.40;0.20;;;1.00;1.40;;;1.35;100.00;93263.11;646255;212;32449;-73
2022/04/01 07:52:07;;;;;;;;;;;1.10;1.40;;;1.39;100.00;93263.77;653775;212;24825;-72
2022/04/01 07:54:52;;;;;;;;;;;1.10;1.40;;;1.46;100.00;93264.69;653825;212;25005;-78
2022/04/01 07:57:36;;;;;;;;;;;1.10;1.40;;;1.44;100.00;93270.82;652896;212;24741;-73
2022/04/01 08:00:17;;;;;;;;;;;1.10;1.40;;;1.47;100.00;93274.69;652425;216;24958;-73
2022/04/01 08:02:59;;;;;;;;;;;1.10;1.40;;;1.45;100.00;93272.12;653581;212;24907;-73
2022/04/01 08:05:43;;;;;;;;;;;1.20;1.40;;;1.49;100.00;93274.41;620832;224;25071;-75
2022/04/01 08:08:24;;;;;;;;;;;1.20;1.40;;;1.53;100.00;93277.26;645767;212;24843;-76
2022/04/01 08:11:09;;;;;;;;;;;1.20;1.40;;;1.66;100.00;93283.73;653345;216;24822;-74
2022/04/01 08:13:50;;;;;;;;;;;1.20;1.40;;;1.71;100.00;93281.69;653256;216;24823;-73
2022/04/01 08:16:31;;;;;;;;;;;1.30;1.40;;;1.70;100.00;93287.10;652493;216;24817;-72
2022/04/01 08:19:12;;;;;;;;;;;1.30;1.40;;;1.57;100.00;93292.92;653797;216;24924;-73
2022/04/01 08:21:57;;;;;;;;;;;1.20;1.40;;;1.70;100.00;93297.56;652888;216;24895;-73
2022/04/01 08:24:35;;;;;;;;;;;1.30;1.40;;;1.62;100.00;93299.59;655003;212;25287;-72
2022/04/01 08:27:16;;;;;;;;;;;1.20;1.40;;;1.55;100.00;93300.70;652905;216;24834;-72
2022/04/01 08:29:59;;;;;;;;;;;1.30;1.40;;;1.58;100.00;93298.39;655556;212;24814;-73
2022/04/01 08:32:45;;;;;;;;;;;1.30;1.40;;;1.71;100.00;93291.72;653993;216;24823;-79
2022/04/01 08:35:51;;;;;;;;;;;1.50;1.40;;;1.74;100.00;93297.46;653446;216;25321;-73
2022/04/01 08:38:32;;;;;;;;;;;1.50;1.40;;;1.92;100.00;93299.20;653004;216;24811;-73
2022/04/01 08:41:17;;;;;;;;;;;1.60;1.40;;;2.14;100.00;93298.44;653724;216;24807;-73
2022/04/01 08:43:58;;;;;;;;;;;1.70;1.40;;;1.93;100.00;93303.20;655111;212;25348;-73
2022/04/01 08:46:39;;;;;;;;;;;1.60;1.40;;;1.94;100.00;93307.88;653203;216;25021;-73
2022/04/01 08:49:20;;;;;;;;;;;1.70;1.40;;;1.98;100.00;93310.83;653641;216;24829;-73
2022/04/01 08:52:04;;;;;;;;;;;1.60;1.40;;;2.04;100.00;93314.41;649318;215;24750;-75
2022/04/01 08:54:47;;;;;;;;;;;1.70;1.40;;;2.02;100.00;93316.60;649197;216;25507;-73
2022/04/01 08:57:29;;;;;;;;;;;1.70;1.40;;;2.08;100.00;93312.16;653223;212;24826;-73
2022/04/01 09:00:32;;;;;;;;;;;1.70;1.40;;;2.08;100.00;93316.32;654094;216;24806;-73
2022/04/01 09:03:13;;;;;;;;;;;1.70;1.40;;;2.16;100.00;93327.61;653539;212;24753;-73
2022/04/01 09:05:55;;;;;;;;;;;1.70;1.40;;;2.40;100.00;93319.67;652614;216;24815;-73
2022/04/01 09:08:38;;;;;;;;;;;2.00;1.40;;;2.36;100.00;93324.54;640957;216;24899;-77
2022/04/01 09:11:25;;;;;;;;;;;2.00;1.40;;;2.43;100.00;93328.12;653594;216;24821;-73
2022/04/01 09:14:08;;;;;;;;;;;2.00;1.40;;;2.55;100.00;93327.61;653048;216;24853;-73
2022/04/01 09:16:48;;;;;;;;;;;2.10;1.40;;;2.51;100.00;93335.62;652912;216;25010;-72
2022/04/01 09:19:31;;;;;;;;;;;2.00;1.40;;;2.44;100.00;93335.53;652273;216;24807;-72
2022/04/01 09:22:18;;;;;;;;;;;2.00;1.40;;;2.49;100.00;93335.62;652368;216;25355;-73
2022/04/01 09:25:01;;;;;;;;;;;2.10;1.40;;;2.62;100.00;93332.92;649262;216;25462;-73
2022/04/01 09:27:46;;;;;;;;;;;2.20;1.40;;;2.67;100.00;93339.47;653182;212;24826;-73
2022/04/01 09:30:27;;;;;;;;;;;2.20;1.40;;;3.11;100.00;93335.03;653253;216;24814;-73
2022/04/01 09:35:52;;;;;;;0.40;0.30;;;2.70;1.40;;;3.17;100.00;93345.17;645804;212;31518;-73
2022/04/01 09:38:36;;;;;;;;;;;2.60;1.40;;;2.96;100.00;93346.43;651501;212;24871;-73
2022/04/01 09:41:17;;;;;;;;;;;2.40;1.40;;;3.00;100.00;93342.71;653182;212;24893;-73
2022/04/01 09:44:21;;;;;;;;;;;2.50;1.40;;;2.89;100.00;93355.41;657003;216;24944;-77
2022/04/01 09:47:07;;;;;;;;;;;2.40;1.40;;;2.97;100.00;93356.53;644976;221;25921;-77
2022/04/01 09:49:48;;;;;;;;;;;2.30;1.40;;;2.70;100.00;93358.77;623169;224;24953;-77
2022/04/01 09:52:36;;;;;;;;;;;2.20;1.40;;;2.66;100.00;93357.90;621063;226;24889;-73
2022/04/01 09:55:17;;;;;;;;;;;2.30;1.40;;;2.79;100.00;93353.99;653135;216;24812;-73
2022/04/01 09:58:04;;;;;;;;;;;2.40;1.40;;;3.05;100.00;93356.17;653361;212;24831;-77
2022/04/01 10:00:48;;;;;;;;;;;2.70;1.40;;;3.12;100.00;93357.86;652361;216;24861;-75
2022/04/01 10:03:29;;;;;;;;;;;2.50;1.40;;;3.02;100.00;93358.50;649395;215;24818;-73
2022/04/01 10:06:10;;;;;;;;;;;2.60;1.40;;;3.16;100.00;93355.03;654449;216;24829;-73
2022/04/01 10:08:52;;;;;;;;;;;2.70;1.40;;;3.32;100.00;93359.84;642160;213;25191;-74
2022/04/01 10:11:37;;;;;;;;;;;2.60;1.40;;;3.08;100.00;93367.48;653878;216;24729;-74
2022/04/01 10:14:24;;;;;;;;;;;2.30;1.40;;;2.94;100.00;93363.66;652864;216;24731;-77
2022/04/01 10:17:11;;;;;;;;;;;2.60;1.40;;;3.09;100.00;93360.19;653027;216;24733;-74
2022/04/01 10:19:53;;;;;;;;;;;2.60;1.40;;;3.03;100.00;93368.20;653677;212;24748;-74
2022/04/01 10:22:37;;;;;;;;;;;2.50;1.40;;;2.91;100.00;93368.07;653054;216;24728;-75
2022/04/01 10:25:21;;;;;;;;;;;2.30;1.40;;;2.79;100.00;93367.75;652906;212;25298;-75
2022/04/01 10:28:02;;;;;;;;;;;2.30;1.40;;;2.95;100.00;93375.10;653496;212;24719;-75
2022/04/01 10:30:53;;;;;;;;;;;2.40;1.40;;;2.88;100.00;93380.09;654151;216;24917;-76
2022/04/01 10:35:57;;;;;;;;;;;2.40;1.40;;;2.94;100.00;93376.02;653780;212;25163;-77
2022/04/01 10:38:44;;;;;;;;;;;2.50;1.40;;;2.86;100.00;93381.62;653471;216;24837;-78
2022/04/01 10:41:28;;;;;;;;;;;2.40;1.40;;;2.88;100.00;93378.22;653732;216;24905;-76
2022/04/01 10:44:11;;;;;;;;;;;2.50;1.40;;;2.90;100.00;93375.34;654145;212;24861;-78
2022/04/01 10:46:58;;;;;;;;;;;2.50;1.40;;;3.14;100.00;93377.44;652490;212;24850;-75
2022/04/01 10:52:30;;;;;;;;;;;2.60;1.40;;;3.03;100.00;93385.62;654222;212;24811;-79
2022/04/01 10:55:12;;;;;;;;;;;2.60;1.40;;;3.16;100.00;93385.00;649825;214;24913;-78
2022/04/01 10:57:53;;;;;;;;;;;2.60;1.40;;;3.10;100.00;93388.48;649301;215;24849;-79
2022/04/01 11:00:34;;;;;;;;;;;2.70;1.40;;;2.94;100.00;93389.78;654392;212;25375;-77
2022/04/01 11:03:24;;;;;;;;;;;2.60;1.40;;;3.14;100.00;93388.36;654243;216;24821;-78
2022/04/01 11:06:22;;;;;;;;;;;2.70;1.40;;;3.19;100.00;93393.89;654493;216;24777;-77
2022/04/01 11:09:09;;;;;;;;;;;2.70;1.40;;;3.14;100.00;93401.42;641453;216;24867;-75
2022/04/01 11:12:02;;;;;;;;;;;2.60;1.40;;;3.08;100.00;93402.55;653819;216;25867;-76
2022/04/01 11:15:09;;;;;;;;;;;2.60;1.40;;;3.18;100.00;93396.09;649943;215;24726;-78
2022/04/01 11:17:59;;;;;;;;;;;2.80;1.40;;;3.29;100.00;93394.08;653470;216;24853;-75
2022/04/01 11:20:42;;;;;;;;;;;2.80;1.40;;;3.37;100.00;93395.34;653750;216;24825;-76
2022/04/01 11:23:22;;;;;;;;;;;2.90;1.40;;;3.48;100.00;93395.66;622450;226;24866;-76
2022/04/01 11:26:03;;;;;;;;;;;3.00;1.40;;;3.65;100.00;93391.95;648754;215;25371;-75
2022/04/01 11:28:45;;;;;;;;;;;3.10;1.40;;;3.59;100.00;93401.08;652243;216;24830;-77
2022/04/01 11:31:26;;;;;;;;;;;3.00;1.40;;;3.90;100.00;93402.61;649543;217;24809;-76
2022/04/01 11:35:54;;;;;;;1.02;0.55;;;3.40;1.40;;;3.57;100.00;93400.64;646600;216;31580;-75
2022/04/01 11:38:35;;;;;;;0.50;0.40;;;3.10;1.40;;;3.73;100.00;93392.81;646441;216;32125;-75
2022/04/01 11:41:18;;;;;;;0.90;0.60;;;3.20;1.40;;;3.95;100.00;93395.77;646964;213;32052;-76
2022/04/01 11:44:02;;;;;;;0.90;0.70;;;3.40;1.40;;;4.09;100.00;93395.55;645278;216;31549;-75
2022/04/01 11:46:50;;;;;;;0.80;0.70;;;3.40;1.40;;;3.83;100.00;93398.59;647570;212;31531;-78
2022/04/01 11:49:38;;;;;;;0.70;0.40;;;3.10;1.40;;;3.78;100.00;93396.84;617973;222;32910;-77
2022/04/01 11:52:20;;;;;;;0.40;0.30;;;3.10;1.40;;;3.72;100.00;93408.34;646782;216;31540;-76
2022/04/01 11:55:14;;;;;;;0.40;0.32;;;3.00;1.40;;;3.48;100.00;93402.05;649079;212;31487;-78
2022/04/01 11:58:01;;;;;;;0.40;0.30;;;2.80;1.40;;;3.37;100.00;93405.41;645508;216;31694;-75
2022/04/01 12:00:46;;;;;;;0.40;0.40;;;2.90;1.40;;;3.52;100.00;93411.05;645384;212;31873;-76
2022/04/01 12:03:28;;;;;;;0.60;0.40;;;2.90;1.40;;;3.48;100.00;93406.43;646924;216;38557;-76
2022/04/01 12:09:09;;;;;;;0.73;0.40;;;2.80;1.40;;;3.30;100.00;93420.52;610395;226;32786;-76
2022/04/01 12:11:58;;;;;;;0.80;0.50;;;2.90;1.40;;;3.31;100.00;93415.20;649480;216;31669;-78
2022/04/01 12:14:42;;;;;;;0.65;0.40;;;2.80;1.40;;;3.18;100.00;93423.95;621358;226;31830;-77
2022/04/01 12:17:25;;;;;;;0.40;0.40;;;2.90;1.40;;;3.51;100.00;93425.10;642490;217;31487;-78
2022/04/01 12:20:09;;;;;;;;;;;3.10;1.40;;;3.56;100.00;93422.04;650025;215;24836;-78
2022/04/01 12:22:52;;;;;;;;;;;3.20;1.40;;;3.58;100.00;93429.64;653387;212;25077;-77
2022/04/01 12:25:33;;;;;;;;;;;3.10;1.40;;;3.63;100.00;93430.27;652921;216;24819;-79
2022/04/01 12:28:16;;;;;;;;;;;3.10;1.40;;;3.57;100.00;93422.55;654581;216;24933;-78
2022/04/01 12:30:56;;;;;;;;;;;3.00;1.40;;;3.24;100.00;93427.91;654676;216;24823;-78
2022/04/01 12:36:00;;;;;;;;;;;3.00;1.40;;;3.49;100.00;93421.47;650490;215;24758;-79
2022/04/01 12:38:50;;;;;;;;;;;3.10;1.40;;;3.68;100.00;93426.86;655078;212;24820;-78
2022/04/01 12:41:32;;;;;;;;;;;3.20;1.40;;;3.69;100.00;93420.06;653514;212;24831;-78
2022/04/01 12:44:14;;;;;;;;;;;3.30;1.40;;;3.67;100.00;93427.41;653838;212;25097;-79
2022/04/01 12:46:57;;;;;;;;;;;3.40;1.40;;;3.79;100.00;93426.80;650162;214;25210;-78
2022/04/01 12:49:36;;;;;;;;;;;3.40;1.40;;;3.79;100.00;93435.77;654413;216;24806;-78
2022/04/01 12:52:19;;;;;;;;;;;3.40;1.40;;;3.80;100.00;93434.62;654903;216;24750;-79
2022/04/01 12:55:04;;;;;;;;;;;3.50;1.40;;;3.96;100.00;93434.34;654379;212;24861;-78
2022/04/01 12:57:44;;;;;;;;;;;3.40;1.40;;;3.79;100.00;93438.25;653555;212;24815;-77
2022/04/01 13:00:25;;;;;;;;;;;3.30;1.40;;;3.54;100.00;93442.34;654053;216;25323;-78
2022/04/01 13:03:08;;;;;;;;;;;3.10;1.40;;;3.39;100.00;93436.58;654327;216;24732;-79
2022/04/01 13:05:49;;;;;;;;;;;3.00;1.40;;;3.46;100.00;93439.72;655109;212;24845;-79
2022/04/01 13:08:32;;;;;;;;;;;3.00;1.40;;;3.63;100.00;93437.48;641707;212;24856;-78
2022/04/01 13:11:13;;;;;;;;;;;3.20;1.40;;;3.61;100.00;93440.65;654880;216;25232;-78
2022/04/01 13:13:55;;;;;;;;;;;3.10;1.40;;;3.57;100.00;93438.14;655901;212;24913;-78
2022/04/01 13:16:38;;;;;;;;;;;3.10;1.40;;;3.48;100.00;93443.39;653017;212;25317;-78
2022/04/01 13:19:21;;;;;;;;;;;3.00;1.40;;;3.61;100.00;93445.31;623576;224;24945;-79
2022/04/01 13:22:04;;;;;;;;;;;3.20;1.40;;;3.72;100.00;93445.52;654239;216;24838;-79
2022/04/01 13:24:49;;;;;;;;;;;3.30;1.40;;;3.59;100.00;93446.78;650164;215;24686;-78
2022/04/01 13:27:31;;;;;;;;;;;3.10;1.40;;;3.64;100.00;93453.91;653743;216;25414;-78
2022/04/01 13:30:17;;;;;;;;;;;3.10;1.40;;;3.59;100.00;93449.46;654265;216;25270;-78
2022/04/01 13:32:58;;;;;;;;;;;3.00;1.40;;;3.41;100.00;93449.70;654109;212;25270;-78
2022/04/01 13:35:51;;;;;;;;;;;2.80;1.40;;;3.20;100.00;93456.28;654922;216;24814;-78